Terminal Aerodrome Forecast
Issued by NWS

Home | Current Version | Previous Version | Graphics & Text | Print | Product List | Glossary On
Versions: 1 2 3 4 5 6 7 8 9 10 11 12 13 14
000
FTUS41 KCLE 271500 AAA
TAFFDY
TAF AMD
KFDY 271557Z 2716/2812 20012G20KT P6SM SCT050 BKN200
     FM272300 19012KT P6SM BKN180
     FM280300 20014KT P6SM SCT050 BKN200 WS020/22045KT=

USA.gov is the U.S. government's official web portal to all federal, state and local government web resources and services.